createdAt,value
2022-11-15T00:00:29.420Z,96481.75
2022-11-15T00:03:22.662Z,96484.14
2022-11-15T00:06:09.988Z,96487.52
2022-11-15T00:09:00.166Z,96484.60
2022-11-15T00:11:47.188Z,96479.31
2022-11-15T00:14:34.168Z,96478.82
2022-11-15T00:17:20.988Z,96478.84
2022-11-15T00:20:08.865Z,96474.13
2022-11-15T00:22:55.865Z,96470.94
2022-11-15T00:25:42.534Z,96464.66
2022-11-15T00:28:29.507Z,96462.85
2022-11-15T00:31:16.559Z,96462.92
2022-11-15T00:34:02.982Z,96460.73
2022-11-15T00:36:49.751Z,96456.91
2022-11-15T00:39:36.587Z,96455.70
2022-11-15T00:42:23.248Z,96452.09
2022-11-15T00:45:10.759Z,96453.45
2022-11-15T00:47:58.172Z,96451.63
2022-11-15T00:50:44.638Z,96448.73
2022-11-15T00:53:31.413Z,96450.16
2022-11-15T00:56:18.461Z,96449.53
2022-11-15T00:59:05.578Z,96446.02
2022-11-15T01:01:53.060Z,96448.65
2022-11-15T01:04:39.510Z,96443.66
2022-11-15T01:07:26.492Z,96443.91
2022-11-15T01:10:13.311Z,96445.75
2022-11-15T01:13:00.249Z,96446.09
2022-11-15T01:15:47.962Z,96440.92
2022-11-15T01:18:34.620Z,96440.64
2022-11-15T01:21:22.124Z,96434.83
2022-11-15T01:24:13.049Z,96437.15
2022-11-15T01:26:59.798Z,96436.73
2022-11-15T01:29:46.571Z,96438.41
2022-11-15T01:32:33.726Z,96435.20
2022-11-15T01:35:21.931Z,96432.81
2022-11-15T01:38:08.714Z,96431.44
2022-11-15T01:40:56.044Z,96430.91
2022-11-15T01:43:43.062Z,96430.41
2022-11-15T01:46:36.273Z,96427.65
2022-11-15T01:49:25.338Z,96420.98
2022-11-15T01:52:16.277Z,96422.54
2022-11-15T01:55:20.122Z,96419.62
2022-11-15T01:58:08.284Z,96415.23
2022-11-15T02:00:55.293Z,96414.62
2022-11-15T02:04:05.463Z,96410.84
2022-11-15T02:06:52.767Z,96402.25
2022-11-15T02:09:40.492Z,96401.16
2022-11-15T02:12:27.470Z,96390.98
2022-11-15T02:15:14.435Z,96388.90
2022-11-15T02:18:30.891Z,96386.81
2022-11-15T02:21:17.622Z,96383.80
2022-11-15T02:24:26.028Z,96383.31
2022-11-15T02:27:18.960Z,96379.80
2022-11-15T02:30:16.529Z,96381.70
2022-11-15T02:33:24.762Z,96386.09
2022-11-15T02:36:34.145Z,96383.40
2022-11-15T02:39:46.499Z,96383.25
2022-11-15T02:43:03.170Z,96379.59
2022-11-15T02:46:03.255Z,96377.74
2022-11-15T02:48:52.084Z,96372.15
2022-11-15T02:51:40.939Z,96374.80
2022-11-15T02:54:31.888Z,96366.96
2022-11-15T02:57:22.847Z,96363.80
2022-11-15T03:00:13.748Z,96361.53
2022-11-15T03:03:30.044Z,96353.77
2022-11-15T03:06:54.100Z,96350.86
2022-11-15T03:09:43.271Z,96348.83
2022-11-15T03:12:38.940Z,96350.10
2022-11-15T03:15:32.996Z,96345.50
2022-11-15T03:18:33.209Z,96348.24
2022-11-15T03:21:22.283Z,96344.85
2022-11-15T03:24:10.203Z,96342.50
2022-11-15T03:27:00.573Z,96341.79
2022-11-15T03:29:54.085Z,96342.86
2022-11-15T03:32:51.485Z,96339.83
2022-11-15T03:35:41.700Z,96333.33
2022-11-15T03:38:33.110Z,96326.04
2022-11-15T03:41:52.057Z,96324.55
2022-11-15T03:44:45.942Z,96317.11
2022-11-15T03:47:39.811Z,96316.70
2022-11-15T03:50:27.793Z,96316.09
2022-11-15T03:53:15.288Z,96313.26
2022-11-15T03:56:02.215Z,96311.30
2022-11-15T03:58:49.255Z,96306.48
2022-11-15T04:01:35.837Z,96300.86
2022-11-15T04:04:22.541Z,96299.27
2022-11-15T04:07:09.594Z,96297.67
2022-11-15T04:10:06.708Z,96292.67
2022-11-15T04:12:53.997Z,96288.01
2022-11-15T04:15:40.713Z,96281.58
2022-11-15T04:18:28.082Z,96279.43
2022-11-15T04:21:33.787Z,96270.91
2022-11-15T04:24:20.437Z,96268.54
2022-11-15T04:27:07.224Z,96265.52
2022-11-15T04:29:54.178Z,96270.17
2022-11-15T04:32:40.998Z,96266.98
2022-11-15T04:35:28.453Z,96258.79
2022-11-15T04:38:15.000Z,96258.35
2022-11-15T04:41:02.878Z,96256.48
2022-11-15T04:43:49.429Z,96252.44
2022-11-15T04:46:36.265Z,96245.91
2022-11-15T04:49:22.976Z,96246.77
2022-11-15T04:52:09.866Z,96247.66
2022-11-15T04:54:56.666Z,96243.02
2022-11-15T04:57:43.479Z,96241.46
2022-11-15T05:00:31.702Z,96238.49
2022-11-15T05:03:36.962Z,96238.12
2022-11-15T05:06:23.738Z,96237.58
2022-11-15T05:09:10.595Z,96234.15
2022-11-15T05:11:57.689Z,96231.91
2022-11-15T05:14:44.419Z,96229.18
2022-11-15T05:17:31.236Z,96231.26
2022-11-15T05:20:18.374Z,96225.61
2022-11-15T05:23:05.569Z,96225.36
2022-11-15T05:25:52.271Z,96224.77
2022-11-15T05:28:39.495Z,96223.10
2022-11-15T05:31:27.564Z,96222.66
2022-11-15T05:34:14.211Z,96216.84
2022-11-15T05:37:01.449Z,96215.88
2022-11-15T05:39:48.070Z,96218.14
2022-11-15T05:42:34.922Z,96214.96
2022-11-15T05:45:26.679Z,96217.97
2022-11-15T05:48:15.692Z,96217.39
2022-11-15T05:51:05.064Z,96214.20
2022-11-15T05:53:53.917Z,96213.57
2022-11-15T05:56:40.682Z,96213.60
2022-11-15T05:59:31.326Z,96214.50
2022-11-15T06:02:18.314Z,96211.04
2022-11-15T06:05:05.575Z,96206.40
2022-11-15T06:07:52.179Z,96209.83
2022-11-15T06:10:38.787Z,96212.23
2022-11-15T06:13:25.452Z,96209.17
2022-11-15T06:16:12.631Z,96207.34
2022-11-15T06:18:59.648Z,96207.34
2022-11-15T06:21:46.566Z,96208.64
2022-11-15T06:24:33.660Z,96211.56
2022-11-15T06:27:20.341Z,96215.13
2022-11-15T06:30:07.940Z,96210.96
2022-11-15T06:33:06.604Z,96212.06
2022-11-15T06:35:53.492Z,96213.27
2022-11-15T06:38:40.793Z,96208.17
2022-11-15T06:41:27.449Z,96207.91
2022-11-15T06:44:14.328Z,96209.69
2022-11-15T06:47:01.389Z,96210.63
2022-11-15T06:49:47.884Z,96208.75
2022-11-15T06:52:35.284Z,96210.56
2022-11-15T06:55:21.999Z,96205.58
2022-11-15T06:58:08.682Z,96208.64
2022-11-15T07:01:00.515Z,96206.66
2022-11-15T07:03:47.717Z,96205.83
2022-11-15T07:06:34.787Z,96205.81
2022-11-15T07:09:21.358Z,96203.54
2022-11-15T07:12:08.349Z,96204.14
2022-11-15T07:14:55.218Z,96200.48
2022-11-15T07:17:42.322Z,96195.73
2022-11-15T07:20:29.320Z,96198.17
2022-11-15T07:23:16.208Z,96197.96
2022-11-15T07:26:02.838Z,96190.94
2022-11-15T07:28:49.665Z,96190.98
2022-11-15T07:31:36.565Z,96191.58
2022-11-15T07:34:23.425Z,96193.02
2022-11-15T07:37:10.266Z,96189.06
2022-11-15T07:39:57.367Z,96189.77
2022-11-15T07:42:57.318Z,96191.24
2022-11-15T07:45:46.191Z,96193.39
2022-11-15T07:48:43.260Z,96191.93
2022-11-15T07:51:31.454Z,96188.07
2022-11-15T07:54:18.396Z,96189.94
2022-11-15T07:57:07.731Z,96184.46
2022-11-15T07:59:55.043Z,96181.85
2022-11-15T08:02:42.370Z,96174.04
2022-11-15T08:05:29.238Z,96171.67
2022-11-15T08:08:17.039Z,96172.83
2022-11-15T08:11:03.850Z,96164.09
2022-11-15T08:13:50.827Z,96162.92
2022-11-15T08:16:37.844Z,96165.48
2022-11-15T08:19:25.010Z,96161.58
2022-11-15T08:22:11.999Z,96161.05
2022-11-15T08:24:58.786Z,96160.38
2022-11-15T08:27:46.054Z,96160.36
2022-11-15T08:30:37.625Z,96162.56
2022-11-15T08:33:25.668Z,96157.95
2022-11-15T08:36:17.407Z,96159.55
2022-11-15T08:39:04.340Z,96156.25
2022-11-15T08:41:51.110Z,96157.60
2022-11-15T08:44:38.425Z,96157.68
2022-11-15T08:47:25.437Z,96157.21
2022-11-15T08:50:13.303Z,96153.66
2022-11-15T08:53:06.751Z,96158.80
2022-11-15T08:55:53.746Z,96152.52
2022-11-15T08:58:41.194Z,96154.23
2022-11-15T09:01:28.213Z,96153.70
2022-11-15T09:04:14.957Z,96153.02
2022-11-15T09:07:01.868Z,96154.53
2022-11-15T09:09:49.044Z,96153.59
2022-11-15T09:12:36.293Z,96148.29
2022-11-15T09:15:22.840Z,96145.55
2022-11-15T09:18:09.824Z,96145.55
2022-11-15T09:20:58.748Z,96145.35
2022-11-15T09:23:45.755Z,96140.58
2022-11-15T09:26:32.521Z,96136.65
2022-11-15T09:29:19.811Z,96132.34
2022-11-15T09:32:06.637Z,96130.20
2022-11-15T09:34:53.557Z,96131.16
2022-11-15T09:37:40.059Z,96126.31
2022-11-15T09:40:27.474Z,96121.12
2022-11-15T09:43:32.844Z,96123.30
2022-11-15T09:46:34.781Z,96117.71
2022-11-15T09:49:27.115Z,96112.64
2022-11-15T09:52:23.748Z,96106.71
2022-11-15T09:54:55.467Z,96101.24
2022-11-15T09:57:54.666Z,96095.77
2022-11-15T10:00:46.533Z,96093.45
2022-11-15T10:03:18.463Z,96093.92
2022-11-15T10:05:52.616Z,96091.23
2022-11-15T10:08:27.763Z,96086.94
2022-11-15T10:14:00.850Z,96074.42
2022-11-15T10:16:28.955Z,96071.05
2022-11-15T10:19:35.072Z,96064.29
2022-11-15T10:22:18.692Z,96058.04
2022-11-15T10:24:47.500Z,96057.61
2022-11-15T10:27:20.001Z,96056.48
2022-11-15T10:29:50.655Z,96054.20
2022-11-15T10:32:21.603Z,96051.03
2022-11-15T10:34:51.032Z,96047.35
2022-11-15T10:37:37.452Z,96047.25
2022-11-15T10:40:07.606Z,96048.59
2022-11-15T10:42:36.405Z,96041.77
2022-11-15T10:45:25.391Z,96035.97
2022-11-15T10:47:54.011Z,96032.05
2022-11-15T10:50:31.780Z,96020.31
2022-11-15T10:53:03.820Z,96018.06
2022-11-15T10:55:34.560Z,96016.35
2022-11-15T10:58:07.384Z,96010.27
2022-11-15T11:00:40.324Z,96008.95
2022-11-15T11:03:34.503Z,96009.69
2022-11-15T11:06:17.757Z,96005.16
2022-11-15T11:09:36.646Z,96003.02
2022-11-15T11:12:07.278Z,96005.91
2022-11-15T11:14:38.268Z,96003.45
2022-11-15T11:17:32.610Z,96001.84
2022-11-15T11:20:17.191Z,96001.73
2022-11-15T11:23:03.857Z,95996.39
2022-11-15T11:25:50.460Z,95994.58
2022-11-15T11:28:36.665Z,95995.77
2022-11-15T11:31:07.391Z,95997.48
2022-11-15T11:34:03.550Z,95991.36
2022-11-15T11:36:59.186Z,95982.20
2022-11-15T11:39:49.900Z,95976.73
2022-11-15T11:42:45.893Z,95969.83
2022-11-15T11:45:47.163Z,95968.81
2022-11-15T11:48:42.994Z,95965.64
2022-11-15T11:51:24.480Z,95963.92
2022-11-15T11:54:14.907Z,95962.34
2022-11-15T11:56:46.435Z,95960.58
2022-11-15T11:59:40.425Z,95959.59
2022-11-15T12:02:30.118Z,95956.63
2022-11-15T12:05:23.885Z,95957.92
2022-11-15T12:08:03.043Z,95955.44
2022-11-15T12:10:34.684Z,95952.50
2022-11-15T12:13:17.824Z,95948.42
2022-11-15T12:15:57.918Z,95950.86
2022-11-15T12:18:25.995Z,95949.82
2022-11-15T12:21:20.797Z,95951.39
2022-11-15T12:23:59.277Z,95947.52
2022-11-15T12:26:35.670Z,95943.05
2022-11-15T12:29:17.845Z,95940.66
2022-11-15T12:31:53.227Z,95937.13
2022-11-15T12:34:21.363Z,95935.26
2022-11-15T12:36:51.765Z,95937.30
2022-11-15T12:39:20.727Z,95936.45
2022-11-15T12:41:57.641Z,95933.08
2022-11-15T12:44:31.793Z,95934.89
2022-11-15T12:47:01.972Z,95928.80
2022-11-15T12:49:30.058Z,95925.44
2022-11-15T12:51:58.050Z,95924.38
2022-11-15T12:54:26.108Z,95919.23
2022-11-15T12:57:09.518Z,95919.89
2022-11-15T12:59:59.761Z,95913.95
2022-11-15T13:02:44.611Z,95914.48
2022-11-15T13:05:19.447Z,95917.20
2022-11-15T13:07:50.831Z,95914.58
2022-11-15T13:10:28.620Z,95909.83
2022-11-15T13:12:59.703Z,95906.73
2022-11-15T13:15:30.860Z,95907.23
2022-11-15T13:17:59.346Z,95906.71
2022-11-15T13:20:32.831Z,95901.86
2022-11-15T13:23:05.990Z,95902.02
2022-11-15T13:25:37.230Z,95896.98
2022-11-15T13:28:17.586Z,95895.39
2022-11-15T13:30:48.712Z,95893.58
2022-11-15T13:33:20.316Z,95891.13
2022-11-15T13:36:00.900Z,95890.60
2022-11-15T13:38:32.748Z,95892.59
2022-11-15T13:41:15.817Z,95888.13
2022-11-15T13:43:44.226Z,95886.59
2022-11-15T13:46:16.826Z,95886.93
2022-11-15T13:48:47.295Z,95884.97
2022-11-15T13:51:25.912Z,95882.96
2022-11-15T13:54:03.743Z,95881.38
2022-11-15T13:56:35.097Z,95877.31
2022-11-15T13:59:25.592Z,95874.10
2022-11-15T14:01:55.616Z,95868.65
2022-11-15T14:04:26.477Z,95869.84
2022-11-15T14:06:58.648Z,95862.50
2022-11-15T14:09:37.168Z,95860.34
2022-11-15T14:12:27.414Z,95859.98
2022-11-15T14:14:55.918Z,95857.20
2022-11-15T14:17:29.816Z,95853.98
2022-11-15T14:19:58.784Z,95852.28
2022-11-15T14:22:29.347Z,95851.64
2022-11-15T14:25:22.587Z,95844.14
2022-11-15T14:28:16.412Z,95842.21
2022-11-15T14:30:48.341Z,95837.75
2022-11-15T14:33:21.420Z,95835.69
2022-11-15T14:35:49.859Z,95834.85
2022-11-15T14:38:18.386Z,95830.02
2022-11-15T14:40:46.526Z,95828.21
2022-11-15T14:43:14.971Z,95827.46
2022-11-15T14:45:43.713Z,95822.17
2022-11-15T14:48:11.833Z,95818.35
2022-11-15T14:50:40.191Z,95817.19
2022-11-15T14:53:15.987Z,95815.61
2022-11-15T14:55:44.744Z,95815.77
2022-11-15T14:58:12.834Z,95813.99
2022-11-15T15:00:42.274Z,95814.40
2022-11-15T15:03:11.324Z,95806.35
2022-11-15T15:05:44.166Z,95808.96
2022-11-15T15:08:13.065Z,95809.48
2022-11-15T15:10:46.458Z,95807.86
2022-11-15T15:13:22.152Z,95809.77
2022-11-15T15:15:52.563Z,95810.17
2022-11-15T15:18:21.471Z,95809.73
2022-11-15T15:20:58.411Z,95809.06
2022-11-15T15:23:30.366Z,95809.00
2022-11-15T15:25:58.612Z,95806.63
2022-11-15T15:28:31.395Z,95806.30
2022-11-15T15:31:03.054Z,95805.60
2022-11-15T15:33:32.226Z,95810.38
2022-11-15T15:36:00.381Z,95812.48
2022-11-15T15:38:28.621Z,95809.79
2022-11-15T15:40:56.790Z,95809.53
2022-11-15T15:43:24.842Z,95807.05
2022-11-15T15:45:53.075Z,95801.47
2022-11-15T15:48:21.237Z,95802.27
2022-11-15T15:50:50.335Z,95802.30
2022-11-15T15:53:18.446Z,95803.52
2022-11-15T15:55:46.690Z,95798.27
2022-11-15T15:58:15.058Z,95801.70
2022-11-15T16:00:43.193Z,95798.51
2022-11-15T16:03:11.482Z,95794.80
2022-11-15T16:05:39.513Z,95790.74
2022-11-15T16:08:42.540Z,95792.56
2022-11-15T16:11:16.047Z,95787.98
2022-11-15T16:13:44.222Z,95783.17
2022-11-15T16:16:14.755Z,95778.94
2022-11-15T16:18:43.475Z,95777.08
2022-11-15T16:21:11.496Z,95780.12
2022-11-15T16:23:40.347Z,95780.57
2022-11-15T16:26:27.511Z,95785.22
2022-11-15T16:28:55.741Z,95785.20
2022-11-15T16:31:23.731Z,95787.21
2022-11-15T16:33:51.889Z,95782.52
2022-11-15T16:36:30.753Z,95779.50
2022-11-15T16:38:59.935Z,95779.20
2022-11-15T16:41:27.978Z,95778.73
2022-11-15T16:43:56.260Z,95776.35
2022-11-15T16:46:26.351Z,95772.48
2022-11-15T16:48:55.094Z,95770.79
2022-11-15T16:51:23.800Z,95767.79
2022-11-15T16:53:52.410Z,95766.77
2022-11-15T16:56:30.492Z,95767.58
2022-11-15T16:59:00.824Z,95767.84
2022-11-15T17:01:31.476Z,95767.70
2022-11-15T17:04:00.172Z,95766.07
2022-11-15T17:06:28.624Z,95766.09
2022-11-15T17:08:57.629Z,95763.30
2022-11-15T17:11:25.796Z,95760.11
2022-11-15T17:13:58.917Z,95758.48
2022-11-15T17:16:27.163Z,95757.60
2022-11-15T17:18:55.359Z,95756.00
2022-11-15T17:21:23.699Z,95758.34
2022-11-15T17:23:52.136Z,95758.13
2022-11-15T17:26:30.241Z,95758.20
2022-11-15T17:29:01.529Z,95758.08
2022-11-15T17:31:31.506Z,95753.63
2022-11-15T17:34:01.643Z,95748.73
2022-11-15T17:36:29.916Z,95744.77
2022-11-15T17:38:59.743Z,95745.95
2022-11-15T17:41:29.218Z,95744.58
2022-11-15T17:44:00.033Z,95741.30
2022-11-15T17:46:29.154Z,95739.30
2022-11-15T17:48:58.111Z,95734.00
2022-11-15T17:51:26.754Z,95728.72
2022-11-15T17:53:56.253Z,95726.36
2022-11-15T17:56:27.355Z,95725.19
2022-11-15T17:58:58.453Z,95719.34
2022-11-15T18:01:28.897Z,95714.84
2022-11-15T18:04:00.918Z,95712.13
2022-11-15T18:06:31.880Z,95708.83
2022-11-15T18:09:00.602Z,95705.38
2022-11-15T18:11:40.223Z,95700.55
2022-11-15T18:14:12.848Z,95700.41
2022-11-15T18:16:41.117Z,95697.38
2022-11-15T18:19:13.364Z,95699.99
2022-11-15T18:21:59.311Z,95702.25
2022-11-15T18:24:35.871Z,95699.77
2022-11-15T18:27:05.936Z,95700.33
2022-11-15T18:29:37.718Z,95699.71
2022-11-15T18:32:11.719Z,95700.08
2022-11-15T18:34:42.235Z,95692.91
2022-11-15T18:37:10.525Z,95691.90
2022-11-15T18:39:38.844Z,95688.95
2022-11-15T18:42:07.540Z,95690.34
2022-11-15T18:44:36.614Z,95691.40
2022-11-15T18:47:05.123Z,95688.32
2022-11-15T18:49:33.279Z,95685.73
2022-11-15T18:52:01.571Z,95686.32
2022-11-15T18:54:31.366Z,95682.14
2022-11-15T18:57:00.665Z,95678.55
2022-11-15T18:59:29.567Z,95677.95
2022-11-15T19:01:58.156Z,95676.55
2022-11-15T19:04:26.452Z,95669.14
2022-11-15T19:06:54.642Z,95668.35
2022-11-15T19:09:27.405Z,95671.16
2022-11-15T19:11:55.889Z,95669.05
2022-11-15T19:14:26.302Z,95672.40
2022-11-15T19:16:55.203Z,95671.17
2022-11-15T19:19:25.956Z,95668.95
2022-11-15T19:21:54.714Z,95666.94
2022-11-15T19:24:22.837Z,95666.63
2022-11-15T19:26:51.034Z,95665.10
2022-11-15T19:29:19.253Z,95663.35
2022-11-15T19:31:48.868Z,95659.91
2022-11-15T19:34:18.058Z,95662.55
2022-11-15T19:36:46.822Z,95658.80
2022-11-15T19:39:18.206Z,95657.40
2022-11-15T19:41:47.147Z,95649.88
2022-11-15T19:44:15.885Z,95642.48
2022-11-15T19:46:45.428Z,95642.07
2022-11-15T19:49:13.802Z,95638.33
2022-11-15T19:51:42.885Z,95638.89
2022-11-15T19:54:11.214Z,95638.31
2022-11-15T19:56:40.254Z,95636.96
2022-11-15T19:59:09.197Z,95639.08
2022-11-15T20:01:39.740Z,95637.05
2022-11-15T20:04:10.260Z,95633.79
2022-11-15T20:06:43.207Z,95631.39
2022-11-15T20:09:13.989Z,95629.80
2022-11-15T20:11:42.591Z,95627.85
2022-11-15T20:14:13.096Z,95628.11
2022-11-15T20:16:41.445Z,95628.73
2022-11-15T20:19:09.734Z,95627.02
2022-11-15T20:21:38.356Z,95625.41
2022-11-15T20:24:09.117Z,95621.08
2022-11-15T20:26:58.724Z,95618.56
2022-11-15T20:29:26.874Z,95616.55
2022-11-15T20:31:54.924Z,95612.66
2022-11-15T20:34:23.080Z,95611.17
2022-11-15T20:36:51.104Z,95608.79
2022-11-15T20:39:19.119Z,95608.08
2022-11-15T20:41:47.239Z,95611.34
2022-11-15T20:44:15.350Z,95612.86
2022-11-15T20:46:43.471Z,95609.70
2022-11-15T20:49:11.624Z,95610.83
2022-11-15T20:51:39.674Z,95608.20
2022-11-15T20:54:09.097Z,95605.85
2022-11-15T20:56:37.155Z,95601.38
2022-11-15T20:59:05.297Z,95599.56
2022-11-15T21:01:33.501Z,95599.67
2022-11-15T21:04:02.468Z,95601.50
2022-11-15T21:06:30.911Z,95604.06
2022-11-15T21:09:17.720Z,95603.16
2022-11-15T21:12:04.244Z,95603.46
2022-11-15T21:14:32.226Z,95601.73
2022-11-15T21:17:01.123Z,95595.23
2022-11-15T21:19:35.502Z,95590.91
2022-11-15T21:22:06.540Z,95586.74
2022-11-15T21:24:34.618Z,95579.10
2022-11-15T21:27:02.711Z,95570.27
2022-11-15T21:29:43.230Z,95571.82
2022-11-15T21:32:12.202Z,95570.80
2022-11-15T21:34:40.241Z,95568.13
2022-11-15T21:37:08.808Z,95565.95
2022-11-15T21:39:37.750Z,95563.34
2022-11-15T21:42:06.087Z,95556.80
2022-11-15T21:44:34.690Z,95553.95
2022-11-15T21:47:03.651Z,95550.05
2022-11-15T21:49:31.714Z,95550.48
2022-11-15T21:51:59.726Z,95546.41
2022-11-15T21:54:27.961Z,95546.98
2022-11-15T21:56:56.049Z,95546.87
2022-11-15T21:59:24.191Z,95544.08
2022-11-15T22:02:10.977Z,95545.44
2022-11-15T22:04:39.272Z,95547.19
2022-11-15T22:07:07.478Z,95548.90
2022-11-15T22:09:35.652Z,95548.74
2022-11-15T22:12:03.881Z,95545.19
2022-11-15T22:14:32.016Z,95546.16
2022-11-15T22:17:00.155Z,95544.04
2022-11-15T22:19:28.728Z,95541.22
2022-11-15T22:21:57.049Z,95541.24
2022-11-15T22:24:25.355Z,95534.88
2022-11-15T22:26:53.597Z,95534.13
2022-11-15T22:29:21.728Z,95535.72
2022-11-15T22:31:49.978Z,95531.81
2022-11-15T22:34:19.355Z,95531.50
2022-11-15T22:37:18.289Z,95532.26
2022-11-15T22:39:35.911Z,95531.05
2022-11-15T22:42:04.167Z,95528.16
2022-11-15T22:44:32.295Z,95525.48
2022-11-15T22:47:01.040Z,95524.11
2022-11-15T22:49:29.189Z,95519.08
2022-11-15T22:51:57.263Z,95513.02
2022-11-15T22:54:25.507Z,95512.59
2022-11-15T22:56:53.642Z,95508.39
2022-11-15T22:59:21.884Z,95507.66
2022-11-15T23:01:51.226Z,95506.20
2022-11-15T23:04:19.685Z,95497.73
2022-11-15T23:06:48.231Z,95494.19
2022-11-15T23:09:17.209Z,95489.20
2022-11-15T23:12:04.344Z,95479.13
2022-11-15T23:14:32.525Z,95477.17
2022-11-15T23:17:00.725Z,95471.41
2022-11-15T23:19:28.954Z,95468.73
2022-11-15T23:22:15.495Z,95469.01
2022-11-15T23:24:43.475Z,95467.08
2022-11-15T23:27:15.434Z,95463.27
2022-11-15T23:30:02.580Z,95458.96
2022-11-15T23:32:50.065Z,95452.69
2022-11-15T23:35:18.257Z,95453.60
2022-11-15T23:37:46.397Z,95453.83
2022-11-15T23:40:14.584Z,95452.86
2022-11-15T23:42:42.830Z,95450.95
2022-11-15T23:45:11.156Z,95446.86
2022-11-15T23:47:39.446Z,95440.99
2022-11-15T23:50:08.203Z,95438.02
2022-11-15T23:52:36.349Z,95441.33
2022-11-15T23:55:05.077Z,95437.48
2022-11-15T23:57:33.217Z,95438.52
